This is the latest recevied weather packets stored in our database for station/object EA7AIS-10. If no packets are shown the sender has not sent any weather packets the latest 10 day(s).
| Time | Temp. | Humidity | Pressure | Rain* | Wind** | Luminosity | Snow |
|---|---|---|---|---|---|---|---|
| 1777990601 | 22.78° C | 33% | 1010.2 hPa | - | - | - | - |
| 1777989700 | 22.78° C | 34% | 1010.3 hPa | - | - | - | - |
| 1777988800 | 23.33° C | 34% | 1010.3 hPa | - | - | - | - |
| 1777987900 | 22.78° C | 35% | 1010.4 hPa | - | - | - | - |
| 1777987001 | 23.33° C | 35% | 1010.6 hPa | - | - | - | - |
| 1777986100 | 23.33° C | 36% | 1011 hPa | - | - | - | - |
| 1777985200 | 23.33° C | 36% | 1011.1 hPa | - | - | - | - |
| 1777984300 | 23.33° C | 37% | 1011.3 hPa | - | - | - | - |
| 1777983401 | 22.78° C | 37% | 1011.3 hPa | - | - | - | - |
| 1777982500 | 22.78° C | 38% | 1011.3 hPa | - | - | - | - |
| 1777981600 | 22.78° C | 37% | 1011.6 hPa | - | - | - | - |
| 1777980700 | 22.22° C | 35% | 1011.7 hPa | - | - | - | - |
| 1777979800 | 22.22° C | 34% | 1011.7 hPa | - | - | - | - |
| 1777978900 | 22.22° C | 35% | 1011.8 hPa | - | - | - | - |
| 1777978000 | 22.22° C | 35% | 1011.8 hPa | - | - | - | - |
| 1777977100 | 21.67° C | 36% | 1011.9 hPa | - | - | - | - |
| 1777976200 | 21.67° C | 35% | 1011.9 hPa | - | - | - | - |
| 1777975299 | 22.22° C | 35% | 1011.8 hPa | - | - | - | - |
| 1777974399 | 22.22° C | 34% | 1011.9 hPa | - | - | - | - |
| 1777973499 | 22.78° C | 34% | 1011.8 hPa | - | - | - | - |
| 1777972599 | 27.78° C | 33% | 1011.9 hPa | - | - | - | - |
| 1777971699 | 30.56° C | 28% | 1011.9 hPa | - | - | - | - |
| 1777970799 | 30° C | 30% | 1012 hPa | - | - | - | - |
| 1777969899 | 30° C | 30% | 1012 hPa | - | - | - | - |
| 1777968999 | 30° C | 30% | 1012 hPa | - | - | - | - |
* Rain since midnight (hover to see other rain measurements)
** Current wind speed in m/s (hover to see current wind gust speed)